Takuyo — 7JWN — position and weather

sailwx.info

Track history (hours):
 
Tides and Currents Weather Stations Pressure Air Temp Water Temp Dewpoint Dewpoint Depression Visibility Wind Speed Wind Dir Waves Ship Positions

Oceanographic research ship Takuyo (Japan)

Detailed information on ship capabilities available from University of Delaware's Ocean Information Center.

Last reported at 2020-Mar-21 00:51 UTC. Time now 2020-Apr-03 08:15 UTC.
Position N 35°38' E 139°46'.
Warning: this ship's position is 13 days out of date.

Length 96 m; draft 4.7 m.

Type: Other ship. MMSI: 431561000.

Date/timePositionNaut miles runAvg speedWind from/ knotsBaromVisibWave heightAir tempDewpointWater temp
2020-Mar-21 00:51N 35°38' E 139°46'0 0.1
2020-Mar-20 23:59N 35°38' E 139°46'8 8.1
2020-Mar-20 23:00N 35°33' E 139°54'1 0.9
2020-Mar-20 21:30N 35°34' E 139°56'0 0.4
2020-Mar-20 20:53N 35°34' E 139°55'0 0.2
2020-Mar-20 20:24N 35°34' E 139°55'0 0.0
2020-Mar-20 19:07N 35°34' E 139°55'0 0.5
2020-Mar-20 19:00N 35°34' E 139°55'0 0.1
2020-Mar-20 17:00N 35°34' E 139°55'0 0.1
2020-Mar-20 16:00N 35°34' E 139°55'0 0.3
2020-Mar-20 14:30N 35°34' E 139°55'0 0.4
2020-Mar-20 14:00N 35°34' E 139°55'9 9.5
2020-Mar-20 13:00N 35°26' E 139°48'68 8.8
2020-Mar-20 05:15N 34°31' E 138°59'21210.6
2020-Mar-19 09:11N 34°08' E 134°44'1211.9
2020-Mar-19 08:12N 34°17' E 134°35'2213.1
2020-Mar-19 06:30N 34°25' E 134°10'  
Track history (hours):
 
Tides and Currents Weather Stations Pressure Air Temp Water Temp Dewpoint Dewpoint Depression Visibility Wind Speed Wind Dir Waves Ship Positions

Oceanographic research ship Takuyo (Japan)

Detailed information on ship capabilities available from University of Delaware's Ocean Information Center.

Last reported at 2020-Mar-21 00:51 UTC. Time now 2020-Apr-03 08:15 UTC.
Position N 35°38' E 139°46'.
Warning: this ship's position is 13 days out of date.

Length 96 m; draft 4.7 m.

Type: Other ship. MMSI: 431561000.

Date/timePositionNaut miles runAvg speedWind from/ knotsBaromVisibWave heightAir tempDewpointWater temp
2020-Mar-21 00:51N 35°38' E 139°46'0 0.1
2020-Mar-20 23:59N 35°38' E 139°46'8 8.1
2020-Mar-20 23:00N 35°33' E 139°54'1 0.9
2020-Mar-20 21:30N 35°34' E 139°56'0 0.4
2020-Mar-20 20:53N 35°34' E 139°55'0 0.2
2020-Mar-20 20:24N 35°34' E 139°55'0 0.0
2020-Mar-20 19:07N 35°34' E 139°55'0 0.5
2020-Mar-20 19:00N 35°34' E 139°55'0 0.1
2020-Mar-20 17:00N 35°34' E 139°55'0 0.1
2020-Mar-20 16:00N 35°34' E 139°55'0 0.3
2020-Mar-20 14:30N 35°34' E 139°55'0 0.4
2020-Mar-20 14:00N 35°34' E 139°55'9 9.5
2020-Mar-20 13:00N 35°26' E 139°48'68 8.8
2020-Mar-20 05:15N 34°31' E 138°59'21210.6
2020-Mar-19 09:11N 34°08' E 134°44'1211.9
2020-Mar-19 08:12N 34°17' E 134°35'2213.1
2020-Mar-19 06:30N 34°25' E 134°10'  

Dump ship's entire track history